Station Historical Data
 
Daily Summary for February 24, 2018 Units:  Metric    English   Both
« Previous Day
Next Day »
Daily Weekly Monthly Yearly Custom
  Current: High: Low: Average:
Temperature: 3.3 °C -17.8 °C 2.9 °C 3.7 °C
Dew Point: -0.9 °C -17.8 °C -1.1 °C 0.9 °C
Humidity: 74% Humidity% 71% 82%
Wind Speed: 8km/h 0km/h 0km/h 5.3km/h
Wind Gust: 17.7km/h 0km/h - -
WindNE - - SSW
Pressure: 1021.6 hPa 0 hPa 1021.2 hPa -
Precipitation: 0 mm      
Historical Graphs
 
 
Tabular Data for February 24, 2018
Time Temperature Dew Point Pressure Wind Wind Speed Wind Gust Humidity Rainfall Rate (Hourly)
-17.8 °C -17.8 °C 0 hPa Calm     Humidity% 0 mm
00:04 3.9 °C 2.8 °C 1021.2 hPa SW 6.4 km/h 14.5 km/h 92% 0 mm
00:09 3.9 °C 2.8 °C 1021.6 hPa WSW 4.8 km/h 17.7 km/h 93% 0 mm
00:14 3.8 °C 2.8 °C 1021.6 hPa WSW 8 km/h 17.7 km/h 93% 0 mm
00:19 3.8 °C 2.8 °C 1021.6 hPa WSW 8 km/h 17.7 km/h 93% 0 mm
00:24 3.8 °C 2.7 °C 1021.9 hPa WSW 8 km/h 11.3 km/h 93% 0 mm
00:29 3.8 °C 2.6 °C 1021.9 hPa SW 4.8 km/h 19.3 km/h 92% 0 mm
00:34 3.7 °C 2.5 °C 1021.6 hPa WSW 14.5 km/h 17.7 km/h 92% 0 mm
00:39 3.7 °C 2.7 °C 1021.9 hPa WSW 8 km/h 17.7 km/h 93% 0 mm
00:44 3.6 °C 2.6 °C 1021.6 hPa WSW 6.4 km/h 17.7 km/h 93% 0 mm
00:49 3.7 °C 2.7 °C 1021.9 hPa WSW 6.4 km/h 14.5 km/h 93% 0 mm
00:54 3.7 °C 2.7 °C 1021.9 hPa SSW 8 km/h 11.3 km/h 93% 0 mm
00:59 3.7 °C 2.7 °C 1021.9 hPa WSW 6.4 km/h 11.3 km/h 93% 0 mm
01:04 3.7 °C 2.7 °C 1021.9 hPa West 1.6 km/h 9.7 km/h 93% 0 mm
01:09 3.7 °C 2.7 °C 1022.2 hPa WSW 3.2 km/h 9.7 km/h 93% 0 mm
01:14 3.7 °C 2.7 °C 1022.2 hPa WSW 4.8 km/h 9.7 km/h 93% 0 mm
01:19 3.7 °C 2.7 °C 1022.2 hPa WSW 4.8 km/h 9.7 km/h 93% 0 mm
01:24 3.8 °C 2.7 °C 1022.2 hPa WSW 3.2 km/h 9.7 km/h 93% 0 mm
01:29 3.8 °C 2.7 °C 1022.2 hPa WSW 3.2 km/h 9.7 km/h 93% 0 mm
01:34 3.8 °C 2.7 °C 1022.2 hPa WSW 3.2 km/h 8 km/h 93% 0 mm
01:39 3.8 °C 2.8 °C 1022.2 hPa SW 4.8 km/h 8 km/h 93% 0 mm
01:44 3.8 °C 2.8 °C 1022.2 hPa SW 3.2 km/h 8 km/h 93% 0 mm
01:49 3.8 °C 2.8 °C 1022.2 hPa SW 3.2 km/h 6.4 km/h 93% 0 mm
01:54 3.9 °C 2.8 °C 1022.2 hPa SW 3.2 km/h 4.8 km/h 93% 0 mm
01:59 3.9 °C 2.8 °C 1022.2 hPa Calm   6.4 km/h 93% 0 mm
02:04 3.9 °C 2.8 °C 1022.2 hPa SW 1.6 km/h 6.4 km/h 93% 0 mm
02:09 3.9 °C 2.9 °C 1022.2 hPa NW 6.4 km/h 8 km/h 93% 0 mm
02:14 4.1 °C 3 °C 1022.2 hPa WSW 3.2 km/h 12.9 km/h 93% 0 mm
02:19 4.2 °C 3.2 °C 1022.2 hPa West 4.8 km/h 12.9 km/h 93% 0 mm
02:24 4.4 °C 3.3 °C 1022.2 hPa WSW 3.2 km/h 9.7 km/h 93% 0 mm
02:29 4.5 °C 3.4 °C 1022.2 hPa WSW 9.7 km/h 16.1 km/h 93% 0 mm
02:34 4.6 °C 3.5 °C 1022.6 hPa NW 8 km/h 14.5 km/h 93% 0 mm
02:39 4.6 °C 3.6 °C 1022.2 hPa West 6.4 km/h 12.9 km/h 93% 0 mm
02:44 4.6 °C 3.6 °C 1022.6 hPa WNW 6.4 km/h 14.5 km/h 93% 0 mm
02:49 4.7 °C 3.6 °C 1022.6 hPa WNW 6.4 km/h 14.5 km/h 93% 0 mm
02:54 4.7 °C 3.6 °C 1022.6 hPa WNW 6.4 km/h 14.5 km/h 93% 0 mm
02:59 4.7 °C 3.6 °C 1022.2 hPa WNW 8 km/h 12.9 km/h 93% 0 mm
03:04 4.6 °C 3.6 °C 1022.2 hPa NW 11.3 km/h 14.5 km/h 93% 0 mm
03:09 4.6 °C 3.5 °C 1022.6 hPa WNW 4.8 km/h 12.9 km/h 93% 0 mm
03:14 4.4 °C 3.4 °C 1022.9 hPa NW 6.4 km/h 14.5 km/h 93% 0 mm
03:19 4.3 °C 3.3 °C 1022.6 hPa WNW 6.4 km/h 14.5 km/h 93% 0 mm
03:24 4.2 °C 3.2 °C 1023.2 hPa WNW 6.4 km/h 14.5 km/h 93% 0 mm
03:34 4.1 °C 3 °C 1022.9 hPa NW 11.3 km/h 16.1 km/h 93% 0 mm
03:39 3.9 °C 2.9 °C 1022.9 hPa NW 8 km/h 22.5 km/h 93% 0 mm
03:44 3.8 °C 2.8 °C 1022.9 hPa NW 8 km/h 22.5 km/h 93% 0 mm
03:49 3.8 °C 2.8 °C 1023.2 hPa NW 9.7 km/h 16.1 km/h 93% 0 mm
04:00 3.8 °C 2.7 °C 1023.2 hPa WNW 6.4 km/h 16.1 km/h 93% 0 mm
04:09 3.8 °C 2.7 °C 1023.6 hPa WNW 6.4 km/h 12.9 km/h 93% 0 mm
04:10 3.8 °C 2.7 °C 1023.6 hPa WNW 8 km/h 12.9 km/h 93% 0 mm
04:19 3.8 °C 2.7 °C 1023.6 hPa WNW 4.8 km/h 11.3 km/h 93% 0 mm
04:24 3.8 °C 2.7 °C 1023.2 hPa WNW 4.8 km/h 11.3 km/h 93% 0 mm
04:29 3.8 °C 2.7 °C 1023.2 hPa NW 6.4 km/h 12.9 km/h 93% 0 mm
04:34 3.8 °C 2.7 °C 1023.2 hPa West 6.4 km/h 12.9 km/h 93% 0 mm
04:39 3.8 °C 2.6 °C 1023.2 hPa NNW 6.4 km/h 14.5 km/h 92% 0 mm
04:44 3.8 °C 2.6 °C 1023.2 hPa NW 6.4 km/h 14.5 km/h 92% 0 mm
04:49 3.8 °C 2.6 °C 1023.2 hPa NW 4.8 km/h 12.9 km/h 92% 0 mm
04:54 3.7 °C 2.6 °C 1023.2 hPa NW 1.6 km/h 8 km/h 92% 0 mm
04:59 3.8 °C 2.6 °C 1022.9 hPa NW 4.8 km/h 4.8 km/h 92% 0 mm
05:04 3.8 °C 2.6 °C 1022.6 hPa WNW 8 km/h 9.7 km/h 92% 0 mm
05:09 3.7 °C 2.6 °C 1022.6 hPa NW 4.8 km/h 9.7 km/h 92% 0 mm
05:14 3.7 °C 2.5 °C 1022.9 hPa NNW 6.4 km/h 14.5 km/h 92% 0 mm
05:19 3.6 °C 2.4 °C 1023.2 hPa NNW 6.4 km/h 14.5 km/h 92% 0 mm
05:24 3.6 °C 2.4 °C 1023.2 hPa NNW 4.8 km/h 12.9 km/h 92% 0 mm
05:29 3.6 °C 2.4 °C 1023.2 hPa NNW 1.6 km/h 9.7 km/h 92% 0 mm
05:34 3.6 °C 2.2 °C 1023.2 hPa WNW 16.1 km/h 17.7 km/h 91% 0 mm
05:39 3.5 °C 2.2 °C 1023.2 hPa North 6.4 km/h 19.3 km/h 91% 0 mm
05:44 3.4 °C 2.1 °C 1023.6 hPa NW 6.4 km/h 19.3 km/h 91% 0 mm
05:49 3.4 °C 2.1 °C 1023.6 hPa NW 4.8 km/h 14.5 km/h 91% 0 mm
05:54 3.4 °C 1.9 °C 1023.6 hPa NW 6.4 km/h 12.9 km/h 90% 0 mm
05:59 3.4 °C 1.9 °C 1023.6 hPa Calm   11.3 km/h 90% 0 mm
06:04 3.4 °C 1.9 °C 1023.6 hPa NW 3.2 km/h 11.3 km/h 90% 0 mm
06:09 3.4 °C 1.9 °C 1023.9 hPa Calm   9.7 km/h 90% 0 mm
06:14 3.4 °C 1.7 °C 1023.9 hPa WNW 3.2 km/h 9.7 km/h 89% 0 mm
06:19 3.4 °C 1.8 °C 1023.6 hPa WNW 1.6 km/h 6.4 km/h 89% 0 mm
06:24 3.4 °C 1.8 °C 1023.6 hPa West 4.8 km/h 8 km/h 89% 0 mm
06:29 3.4 °C 1.8 °C 1023.9 hPa NW 6.4 km/h 8 km/h 89% 0 mm
06:34 3.4 °C 1.6 °C 1023.9 hPa NNW 3.2 km/h 8 km/h 88% 0 mm
06:39 3.4 °C 1.6 °C 1023.9 hPa NW 6.4 km/h 12.9 km/h 88% 0 mm
06:44 3.3 °C 1.4 °C 1023.9 hPa NW 4.8 km/h 12.9 km/h 87% 0 mm
06:49 3.3 °C 1.4 °C 1023.9 hPa NW 4.8 km/h 12.9 km/h 87% 0 mm
06:54 3.3 °C 1.4 °C 1023.9 hPa NW 4.8 km/h 9.7 km/h 87% 0 mm
06:59 3.3 °C 1.2 °C 1023.9 hPa NW 3.2 km/h 8 km/h 86% 0 mm
07:04 3.3 °C 1.2 °C 1023.6 hPa NW 3.2 km/h 8 km/h 86% 0 mm
07:09 3.3 °C 1.2 °C 1023.6 hPa Calm   6.4 km/h 86% 0 mm
07:14 3.3 °C 1.2 °C 1023.6 hPa NW 3.2 km/h 6.4 km/h 86% 0 mm
07:19 3.3 °C 1.1 °C 1023.6 hPa NW 1.6 km/h 6.4 km/h 85% 0 mm
07:24 3.3 °C 1.1 °C 1023.6 hPa NW 1.6 km/h 6.4 km/h 85% 0 mm
07:29 3.3 °C 1.1 °C 1023.9 hPa NW 3.2 km/h 3.2 km/h 85% 0 mm
07:34 3.3 °C 1.1 °C 1023.9 hPa Calm   6.4 km/h 85% 0 mm
07:39 3.3 °C 0.9 °C 1023.9 hPa NW 3.2 km/h 4.8 km/h 84% 0 mm
07:44 3.3 °C 0.9 °C 1023.9 hPa NW 1.6 km/h 6.4 km/h 84% 0 mm
07:49 3.4 °C 0.9 °C 1023.9 hPa Calm   3.2 km/h 84% 0 mm
07:54 3.4 °C 0.9 °C 1023.9 hPa Calm   3.2 km/h 84% 0 mm
07:59 3.4 °C 0.9 °C 1023.9 hPa Calm     84% 0 mm
08:04 3.4 °C 0.9 °C 1023.9 hPa Calm     84% 0 mm
08:09 3.4 °C 1 °C 1024.3 hPa Calm   3.2 km/h 84% 0 mm
08:14 3.4 °C 0.8 °C 1024.3 hPa NW 1.6 km/h 6.4 km/h 83% 0 mm
08:19 3.4 °C 0.8 °C 1024.3 hPa NW 3.2 km/h 4.8 km/h 83% 0 mm
08:24 3.4 °C 0.8 °C 1024.3 hPa NW 1.6 km/h 4.8 km/h 83% 0 mm
08:29 3.6 °C 0.8 °C 1024.3 hPa NW 1.6 km/h 4.8 km/h 82% 0 mm
08:34 3.8 °C 0.7 °C 1024.3 hPa Calm   1.6 km/h 80% 0 mm
08:39 3.9 °C 0.6 °C 1024.3 hPa NNW 3.2 km/h 9.7 km/h 79% 0 mm
08:44 4.1 °C 0.6 °C 1024.6 hPa NNW 1.6 km/h 9.7 km/h 78% 0 mm
08:49 4.2 °C 0.5 °C 1024.6 hPa NNW 4.8 km/h 8 km/h 77% 0 mm
08:54 4.2 °C 0.3 °C 1024.6 hPa NNW 1.6 km/h 8 km/h 76% 0 mm
08:59 4.2 °C 0.3 °C 1024.9 hPa NW 3.2 km/h 9.7 km/h 76% 0 mm
09:04 4.2 °C 0.4 °C 1024.9 hPa WNW 3.2 km/h 9.7 km/h 76% 0 mm
09:09 4.4 °C 0.5 °C 1024.6 hPa WNW 1.6 km/h 6.4 km/h 76% 0 mm
09:14 4.4 °C 0.3 °C 1024.6 hPa NW 3.2 km/h 9.7 km/h 75% 0 mm
09:19 4.3 °C 0.1 °C 1024.6 hPa NW 4.8 km/h 9.7 km/h 74% 0 mm
09:24 4.2 °C 0 °C 1024.6 hPa NNW 1.6 km/h 9.7 km/h 74% 0 mm
09:29 4.2 °C 0 °C 1024.6 hPa NNW 4.8 km/h 11.3 km/h 74% 0 mm
09:34 4.3 °C 0.1 °C 1024.3 hPa NW 6.4 km/h 6.4 km/h 74% 0 mm
09:39 4.5 °C 0.3 °C 1024.6 hPa NW 1.6 km/h 6.4 km/h 74% 0 mm
09:44 4.6 °C 0.1 °C 1024.6 hPa NNW 1.6 km/h 6.4 km/h 73% 0 mm
09:49 4.6 °C 0 °C 1024.6 hPa NNW 1.6 km/h 6.4 km/h 72% 0 mm
09:54 4.8 °C 0.3 °C 1024.6 hPa North 8 km/h 8 km/h 73% 0 mm
09:59 4.7 °C 0.1 °C 1024.6 hPa North 4.8 km/h 8 km/h 72% 0 mm
10:04 4.8 °C 0.3 °C 1024.6 hPa North 4.8 km/h 8 km/h 73% 0 mm
10:09 4.8 °C 0.2 °C 1024.6 hPa NNW 3.2 km/h 8 km/h 72% 0 mm
10:14 4.8 °C -0.1 °C 1024.6 hPa NNW 3.2 km/h 9.7 km/h 71% 0 mm
10:19 4.8 °C 0.2 °C 1024.3 hPa North 1.6 km/h 6.4 km/h 72% 0 mm
10:24 4.9 °C 0.1 °C 1024.3 hPa North 3.2 km/h 8 km/h 71% 0 mm
10:29 4.8 °C 0 °C 1024.3 hPa NNW 6.4 km/h 8 km/h 71% 0 mm
10:34 4.8 °C -0.1 °C 1024.3 hPa NNW 3.2 km/h 8 km/h 71% 0 mm
10:39 4.9 °C 0.4 °C 1024.3 hPa NNW 3.2 km/h 12.9 km/h 73% 0 mm
10:44 4.9 °C 0.3 °C 1024.3 hPa NNW 3.2 km/h 6.4 km/h 72% 0 mm
10:49 5.1 °C 0.7 °C 1024.3 hPa NNE 3.2 km/h 6.4 km/h 73% 0 mm
10:54 5.1 °C 0.4 °C 1024.3 hPa NNE 4.8 km/h 9.7 km/h 72% 0 mm
10:59 5 °C 0.4 °C 1024.3 hPa NNW 3.2 km/h 6.4 km/h 72% 0 mm
11:04 5 °C 0.4 °C 1024.3 hPa NNE 4.8 km/h 9.7 km/h 72% 0 mm
11:09 5 °C 0.4 °C 1024.3 hPa NE 4.8 km/h 9.7 km/h 72% 0 mm
11:14 4.9 °C 0.5 °C 1023.9 hPa NE 3.2 km/h 8 km/h 73% 0 mm
11:19 5 °C 0.4 °C 1023.9 hPa NE 3.2 km/h 8 km/h 72% 0 mm
11:24 4.9 °C 0.5 °C 1023.9 hPa NNE 12.9 km/h 19.3 km/h 73% 0 mm
11:29 4.3 °C 0.3 °C 1023.9 hPa NNE 11.3 km/h 16.1 km/h 75% 0 mm
11:34 3.9 °C 0.1 °C 1023.9 hPa NNE 8 km/h 16.1 km/h 76% 0 mm
11:39 3.9 °C 0.2 °C 1023.9 hPa NNE 6.4 km/h 12.9 km/h 77% 0 mm
11:44 3.8 °C 0.2 °C 1023.9 hPa NNE 6.4 km/h 11.3 km/h 77% 0 mm
11:49 3.8 °C 0.2 °C 1024.3 hPa North 6.4 km/h 9.7 km/h 77% 0 mm
11:54 3.8 °C 0.3 °C 1024.3 hPa NNW 3.2 km/h 9.7 km/h 78% 0 mm
11:59 3.8 °C 0.1 °C 1023.9 hPa NNW 3.2 km/h 9.7 km/h 77% 0 mm
12:04 3.7 °C 0 °C 1023.9 hPa North 4.8 km/h 11.3 km/h 77% 0 mm
12:09 3.6 °C -0.1 °C 1023.6 hPa NE 3.2 km/h 14.5 km/h 77% 0 mm
12:14 3.7 °C 0.2 °C 1023.6 hPa NNE 6.4 km/h 8 km/h 78% 0 mm
12:19 3.7 °C 0.2 °C 1023.6 hPa NE 9.7 km/h 9.7 km/h 78% 0 mm
12:24 3.7 °C 0.2 °C 1023.6 hPa NNE 4.8 km/h 9.7 km/h 78% 0 mm
12:29 3.6 °C 0.1 °C 1023.6 hPa NNW 8 km/h 11.3 km/h 78% 0 mm
12:34 3.6 °C 0.1 °C 1023.6 hPa NNE 6.4 km/h 11.3 km/h 78% 0 mm
12:39 3.6 °C -0.1 °C 1023.6 hPa NNE 6.4 km/h 11.3 km/h 77% 0 mm
12:44 3.4 °C -0.2 °C 1023.6 hPa NNE 6.4 km/h 11.3 km/h 77% 0 mm
12:49 3.4 °C -0.3 °C 1023.2 hPa NNE 4.8 km/h 9.7 km/h 77% 0 mm
12:54 3.4 °C -0.3 °C 1023.2 hPa NNE 6.4 km/h 9.7 km/h 77% 0 mm
12:59 3.3 °C -0.4 °C 1023.2 hPa NE 6.4 km/h 14.5 km/h 77% 0 mm
13:04 3.2 °C -0.5 °C 1023.2 hPa NNE 6.4 km/h 12.9 km/h 77% 0 mm
13:09 3.1 °C -0.4 °C 1023.2 hPa NNE 6.4 km/h 11.3 km/h 78% 0 mm
13:14 3.1 °C -0.6 °C 1022.9 hPa NNE 6.4 km/h 9.7 km/h 77% 0 mm
13:19 3 °C -0.8 °C 1022.9 hPa NNE 4.8 km/h 12.9 km/h 76% 0 mm
13:24 2.9 °C -0.9 °C 1022.9 hPa NE 8 km/h 14.5 km/h 76% 0 mm
13:29 3.2 °C -0.5 °C 1022.9 hPa NNE 6.4 km/h 14.5 km/h 77% 0 mm
13:34 3.2 °C -0.7 °C 1022.9 hPa NNE 6.4 km/h 16.1 km/h 76% 0 mm
13:39 3.1 °C -0.7 °C 1022.9 hPa NE 6.4 km/h 16.1 km/h 76% 0 mm
13:44 2.9 °C -1.1 °C 1022.9 hPa NE 8 km/h 16.1 km/h 75% 0 mm
13:49 3 °C -1 °C 1022.9 hPa North 3.2 km/h 12.9 km/h 75% 0 mm
13:54 3.1 °C -0.8 °C 1023.2 hPa North 1.6 km/h 11.3 km/h 76% 0 mm
13:59 3.2 °C -0.7 °C 1023.2 hPa NNE 6.4 km/h 11.3 km/h 76% 0 mm
14:04 3.3 °C -0.5 °C 1022.9 hPa NNE 4.8 km/h 11.3 km/h 76% 0 mm
14:09 3.3 °C -0.7 °C 1022.9 hPa NNE 4.8 km/h 11.3 km/h 75% 0 mm
14:14 3.4 °C -0.6 °C 1022.9 hPa NNE 4.8 km/h 9.7 km/h 75% 0 mm
14:19 3.3 °C -0.7 °C 1022.9 hPa NE 8 km/h 12.9 km/h 75% 0 mm
14:24 3.2 °C -0.8 °C 1022.9 hPa NE 8 km/h 12.9 km/h 75% 0 mm
14:29 3.2 °C -0.8 °C 1022.6 hPa NE 6.4 km/h 14.5 km/h 75% 0 mm
14:34 3.1 °C -0.9 °C 1022.9 hPa NNE 6.4 km/h 14.5 km/h 75% 0 mm
14:39 3.1 °C -1.1 °C 1022.9 hPa NNE 4.8 km/h 12.9 km/h 74% 0 mm
14:44 3.2 °C -0.8 °C 1022.9 hPa ENE 11.3 km/h 11.3 km/h 75% 0 mm
14:49 3.3 °C -0.9 °C 1022.9 hPa NE 3.2 km/h 11.3 km/h 74% 0 mm
14:54 3.3 °C -0.7 °C 1022.6 hPa NE 4.8 km/h 14.5 km/h 75% 0 mm
14:59 3.3 °C -0.9 °C 1022.6 hPa NE 6.4 km/h 16.1 km/h 74% 0 mm
15:04 3.3 °C -0.7 °C 1022.6 hPa NE 6.4 km/h 16.1 km/h 75% 0 mm
15:09 3.3 °C -0.9 °C 1022.6 hPa NE 6.4 km/h 14.5 km/h 74% 0 mm
15:14 3.4 °C -0.8 °C 1022.2 hPa NE 8 km/h 14.5 km/h 74% 0 mm
15:19 3.4 °C -0.8 °C 1022.2 hPa NE 8 km/h 17.7 km/h 74% 0 mm
15:24 3.4 °C -0.8 °C 1022.6 hPa NE 8 km/h 17.7 km/h 74% 0 mm
15:29 3.4 °C -1 °C 1022.2 hPa NNE 8 km/h 16.1 km/h 73% 0 mm
15:39 3.3 °C -1.1 °C 1022.6 hPa NE 11.3 km/h 12.9 km/h 73% 0 mm
15:44 3.4 °C -0.8 °C 1022.2 hPa ENE 3.2 km/h 14.5 km/h 74% 0 mm
15:49 3.4 °C -0.8 °C 1022.2 hPa ENE 8 km/h 16.1 km/h 74% 0 mm
15:54 3.4 °C -1 °C 1022.2 hPa NE 9.7 km/h 19.3 km/h 73% 0 mm
15:59 3.3 °C -1.1 °C 1021.9 hPa NE 9.7 km/h 19.3 km/h 73% 0 mm
16:04 3.4 °C -0.8 °C 1022.2 hPa ENE 11.3 km/h 16.1 km/h 74% 0 mm
16:09 3.4 °C -0.9 °C 1021.9 hPa NE 8 km/h 16.1 km/h 73% 0 mm
16:19 3.7 °C -0.7 °C 1021.9 hPa NE 8 km/h 16.1 km/h 73% 0 mm
16:24 3.7 °C -0.7 °C 1021.9 hPa NE 3.2 km/h 14.5 km/h 73% 0 mm
16:29 4 °C -0.4 °C 1021.6 hPa ENE 6.4 km/h 14.5 km/h 73% 0 mm
16:34 3.9 °C -0.7 °C 1021.6 hPa NE 16.1 km/h 17.7 km/h 72% 0 mm
16:39 3.7 °C -0.7 °C 1021.2 hPa ENE 8 km/h 17.7 km/h 73% 0 mm
16:44 3.6 °C -0.8 °C 1021.2 hPa NE 11.3 km/h 16.1 km/h 73% 0 mm
16:49 3.4 °C -0.8 °C 1021.2 hPa SE 4.8 km/h 19.3 km/h 74% 0 mm
16:54 3.4 °C -0.8 °C 1021.6 hPa NE 11.3 km/h 17.7 km/h 74% 0 mm
16:59 3.4 °C -0.8 °C 1021.6 hPa East 8 km/h 17.7 km/h 74% 0 mm
17:04 3.4 °C -0.8 °C 1021.2 hPa ENE 8 km/h 17.7 km/h 74% 0 mm
17:09 3.3 °C -0.9 °C 1021.6 hPa NE 8 km/h 17.7 km/h 74% 0 mm
Buffalo, New York, USA
Compliments of Weather Underground - 2 mb